Huvudsida
METAR-TAF:

METAR-TAF

Flygplatser :

Zvartnots internationella flygplats

Jerevan, Armenien

latitud: 40-08-50N, longitud: 044-23-45E, höjd: 865 m

Aktuellt väderrapport

Denna rapport gjordes för 52 minuter sedan, klockan 13:30 UTC
Stilla vind
Temperatur 13°C
Fuktighet 28%
Tryck 1024 hPa
Sikt 10 km eller mer

METAR: UDYZ 121330Z 00000KT 9999 NSC 13/M05 Q1024 R09/010070 NOSIG

Tid: 18:22 (14:22 UTC)

Väderprognos

Denna rapport gjordes för 3 timmar och 21 minuter sedan, klockan 11:01 UTC
Prognos gäller från 12 kl. 12 UTC till 13 kl. 12 UTC
Vind 4 kt varierande vindriktning
Sikt: 6000 m
Temporärt
från 13 kl. 02 UTC till 13 kl. 06 UTC
Sikt: 2300 m
fuktdis

TAF: UDYZ 121101Z 1212/1312 VRB04KT 6000 NSC TEMPO 1302/1306 2300 BR

Aktuella väderrapporter och prognoser från 4000 flygplatser (METAR- och TAF-rapporter).

De tillgängliga stationerna syns som gula och röda prickar på kartan.

För musen över prickarna för att se namnen på stationerna.

Klicka sedan för att få väderrapporter och prognoser.

För att ändra kartan: Klicka på de gröna knapparna med ett svart kors på för att zooma in; den gröna knappen med ett streck på för att zooma ut; eller på de gröna pilarna för angränsande kartor.


METAR-TAF: